Dades meteomassalio
Diari Summary for Juliol 25, 2017 Units:  Metric    English   Both
« Previous Day
Next Day »
Diari Semanal Mensual Anual Personalitzat
  Maxima: Minima: Mijana:
Temperatura: 27.4 °C 16.9 °C 21.6 °C
Rosada: 13.6 °C 10.5 °C 11.9 °C
Humitat: 72 % 36 % 56 %
Velocitat del vent: 43.4 km/h 0.0 km/h 26.8 km/h
Racha vent: 43.4 km/h - -
Vent:- - WNW
Pressio: 1018.2 hPa 1013.4 hPa -
Pluja: 0.0 mm    
Historical Graphs
 
 
Tabular Data for Juliol 25, 2017
Time Temperature Dew Point Pressure Wind Wind Speed Wind Gust Humidity Rainfall Rate (Hourly) solar Conditions
00:02 20.6 °C 13.5 °C 1018.2 hPa West 27.8 km/h 27.8 km/h 64 % 0.0 mm 0.0 W/m2 CLR
00:07 20.5 °C 13.4 °C 1018.2 hPa West 33.8 km/h 33.8 km/h 64 % 0.0 mm 0.0 W/m2 CLR
00:12 20.4 °C 13.3 °C 1018.2 hPa WNW 31.5 km/h 31.5 km/h 64 % 0.0 mm 0.0 W/m2 CLR
00:17 20.3 °C 13.6 °C 1018.2 hPa West 35.2 km/h 35.2 km/h 65 % 0.0 mm 0.0 W/m2 CLR
00:22 20.2 °C 13.4 °C 1018.2 hPa West 38.9 km/h 38.9 km/h 65 % 0.0 mm 0.0 W/m2 CLR
00:27 20.1 °C 13.3 °C 1018.2 hPa WNW 22.5 km/h 22.5 km/h 65 % 0.0 mm 0.0 W/m2 CLR
00:32 20.1 °C 13.3 °C 1018.2 hPa West 38.9 km/h 38.9 km/h 65 % 0.0 mm 0.0 W/m2 CLR
00:37 20.0 °C 13.2 °C 1018.2 hPa West 35.4 km/h 35.4 km/h 65 % 0.0 mm 0.0 W/m2 CLR
00:42 20.0 °C 13.2 °C 1018.2 hPa West 29.6 km/h 29.6 km/h 65 % 0.0 mm 0.0 W/m2 CLR
00:47 20.0 °C 13.2 °C 1018.2 hPa West 42.6 km/h 42.6 km/h 65 % 0.0 mm 0.0 W/m2 CLR
00:52 19.9 °C 13.2 °C 1018.2 hPa West 37.0 km/h 37.0 km/h 65 % 0.0 mm 0.0 W/m2 CLR
00:57 19.8 °C 13.3 °C 1018.2 hPa WNW 33.3 km/h 33.3 km/h 66 % 0.0 mm 0.0 W/m2 CLR
01:02 19.7 °C 13.2 °C 1018.2 hPa WNW 31.5 km/h 31.5 km/h 66 % 0.0 mm 0.0 W/m2 CLR
01:07 19.6 °C 13.3 °C 1018.2 hPa WNW 27.8 km/h 27.8 km/h 67 % 0.0 mm 0.0 W/m2 CLR
01:12 19.6 °C 13.3 °C 1018.2 hPa WNW 33.3 km/h 33.3 km/h 67 % 0.0 mm 0.0 W/m2 CLR
01:17 19.5 °C 13.2 °C 1018.2 hPa WNW 25.9 km/h 25.9 km/h 67 % 0.0 mm 0.0 W/m2 CLR
01:22 19.4 °C 13.2 °C 1018.2 hPa WNW 35.2 km/h 35.2 km/h 67 % 0.0 mm 0.0 W/m2 CLR
01:27 19.5 °C 13.0 °C 1018.2 hPa West 31.5 km/h 31.5 km/h 66 % 0.0 mm 0.0 W/m2 CLR
01:32 19.4 °C 12.9 °C 1017.8 hPa West 31.5 km/h 31.5 km/h 66 % 0.0 mm 0.0 W/m2 CLR
01:37 19.4 °C 12.9 °C 1017.8 hPa WNW 25.9 km/h 25.9 km/h 66 % 0.0 mm 0.0 W/m2 CLR
01:42 19.4 °C 12.9 °C 1017.8 hPa West 37.0 km/h 37.0 km/h 66 % 0.0 mm 0.0 W/m2 CLR
01:47 19.3 °C 12.8 °C 1017.8 hPa West 35.4 km/h 35.4 km/h 66 % 0.0 mm 0.0 W/m2 CLR
01:52 19.3 °C 13.1 °C 1018.2 hPa WSW 31.5 km/h 31.5 km/h 67 % 0.0 mm 0.0 W/m2 CLR
01:57 19.2 °C 12.9 °C 1018.2 hPa WNW 27.4 km/h 27.4 km/h 67 % 0.0 mm 0.0 W/m2 CLR
02:02 19.2 °C 12.9 °C 1018.2 hPa West 25.9 km/h 25.9 km/h 67 % 0.0 mm 0.0 W/m2 CLR
02:07 19.1 °C 13.1 °C 1018.2 hPa West 24.1 km/h 24.1 km/h 68 % 0.0 mm 0.0 W/m2 CLR
02:12 19.0 °C 12.9 °C 1018.2 hPa NW 31.5 km/h 31.5 km/h 68 % 0.0 mm 0.0 W/m2 CLR
02:17 18.9 °C 12.8 °C 1018.2 hPa WNW 22.5 km/h 22.5 km/h 68 % 0.0 mm 0.0 W/m2 CLR
02:23 18.8 °C 13.0 °C 1018.2 hPa West 25.9 km/h 25.9 km/h 69 % 0.0 mm 0.0 W/m2 CLR
02:28 18.7 °C 12.9 °C 1018.2 hPa WNW 27.4 km/h 27.4 km/h 69 % 0.0 mm 0.0 W/m2 CLR
02:33 18.7 °C 13.1 °C 1018.2 hPa West 37.0 km/h 37.0 km/h 70 % 0.0 mm 0.0 W/m2 CLR
02:38 18.6 °C 13.1 °C 1018.2 hPa WNW 33.3 km/h 33.3 km/h 70 % 0.0 mm 0.0 W/m2 CLR
02:43 18.5 °C 12.9 °C 1018.2 hPa WNW 25.9 km/h 25.9 km/h 70 % 0.0 mm 0.0 W/m2 CLR
02:48 18.5 °C 12.9 °C 1018.2 hPa West 31.5 km/h 31.5 km/h 70 % 0.0 mm 0.0 W/m2 CLR
02:53 18.4 °C 12.9 °C 1018.2 hPa West 29.6 km/h 29.6 km/h 70 % 0.0 mm 0.0 W/m2 CLR
02:58 18.4 °C 12.8 °C 1017.8 hPa WNW 38.9 km/h 38.9 km/h 70 % 0.0 mm 0.0 W/m2 CLR
03:03 18.4 °C 12.8 °C 1017.8 hPa WNW 29.6 km/h 29.6 km/h 70 % 0.0 mm 0.0 W/m2 CLR
03:08 18.3 °C 13.0 °C 1017.8 hPa WNW 38.9 km/h 38.9 km/h 71 % 0.0 mm 0.0 W/m2 CLR
03:13 18.3 °C 12.9 °C 1017.8 hPa WNW 35.4 km/h 35.4 km/h 71 % 0.0 mm 0.0 W/m2 CLR
03:18 18.2 °C 12.9 °C 1017.5 hPa WNW 32.2 km/h 32.2 km/h 71 % 0.0 mm 0.0 W/m2 CLR
03:23 18.1 °C 13.0 °C 1017.5 hPa WNW 42.6 km/h 42.6 km/h 72 % 0.0 mm 0.0 W/m2 CLR
03:28 18.0 °C 12.9 °C 1017.5 hPa NW 43.4 km/h 43.4 km/h 72 % 0.0 mm 0.0 W/m2 CLR
03:33 18.0 °C 12.7 °C 1017.2 hPa NW 42.6 km/h 42.6 km/h 71 % 0.0 mm 0.0 W/m2 CLR
03:38 18.0 °C 12.7 °C 1017.2 hPa WNW 42.6 km/h 42.6 km/h 71 % 0.0 mm 0.0 W/m2 CLR
03:43 17.9 °C 12.6 °C 1017.2 hPa West 37.0 km/h 37.0 km/h 71 % 0.0 mm 0.0 W/m2 CLR
03:48 17.9 °C 12.6 °C 1017.2 hPa WNW 38.9 km/h 38.9 km/h 71 % 0.0 mm 0.0 W/m2 CLR
03:53 17.8 °C 12.5 °C 1017.2 hPa WNW 33.3 km/h 33.3 km/h 71 % 0.0 mm 0.0 W/m2 CLR
03:58 17.8 °C 12.5 °C 1017.2 hPa WNW 24.1 km/h 24.1 km/h 71 % 0.0 mm 0.0 W/m2 CLR
04:03 17.8 °C 12.4 °C 1017.2 hPa West 35.2 km/h 35.2 km/h 71 % 0.0 mm 0.0 W/m2 CLR
04:08 17.8 °C 12.4 °C 1017.2 hPa West 31.5 km/h 31.5 km/h 71 % 0.0 mm 0.0 W/m2 CLR
04:13 17.8 °C 12.4 °C 1017.2 hPa WNW 25.9 km/h 25.9 km/h 71 % 0.0 mm 0.0 W/m2 CLR
04:18 17.7 °C 12.4 °C 1017.2 hPa WNW 27.8 km/h 27.8 km/h 71 % 0.0 mm 0.0 W/m2 CLR
04:23 17.7 °C 12.3 °C 1017.5 hPa West 16.7 km/h 16.7 km/h 71 % 0.0 mm 0.0 W/m2 CLR
04:28 17.6 °C 12.3 °C 1017.5 hPa WSW 16.7 km/h 16.7 km/h 71 % 0.0 mm 0.0 W/m2 CLR
04:33 17.6 °C 12.3 °C 1017.5 hPa NW 18.5 km/h 18.5 km/h 71 % 0.0 mm 0.0 W/m2 CLR
04:38 17.6 °C 12.2 °C 1017.5 hPa WSW 1.9 km/h   71 % 0.0 mm 0.0 W/m2 CLR
04:43 17.5 °C 12.2 °C 1017.5 hPa NW 7.4 km/h   71 % 0.0 mm 0.0 W/m2 CLR
04:48 17.4 °C 12.1 °C 1017.2 hPa West 18.5 km/h 18.5 km/h 71 % 0.0 mm 0.0 W/m2 CLR
04:53 17.4 °C 12.1 °C 1017.2 hPa WNW 16.7 km/h 16.7 km/h 71 % 0.0 mm 0.0 W/m2 CLR
04:58 17.4 °C 12.1 °C 1017.2 hPa West 20.4 km/h 20.4 km/h 71 % 0.0 mm 0.0 W/m2 CLR
05:03 17.4 °C 12.1 °C 1017.2 hPa WNW 18.5 km/h 18.5 km/h 71 % 0.0 mm 0.0 W/m2 CLR
05:08 17.4 °C 12.1 °C 1017.2 hPa WNW 24.1 km/h 24.1 km/h 71 % 0.0 mm 0.0 W/m2 CLR
05:13 17.3 °C 12.0 °C 1017.2 hPa WNW 24.1 km/h 24.1 km/h 71 % 0.0 mm 0.0 W/m2 CLR
05:18 17.3 °C 12.0 °C 1017.2 hPa WNW 25.9 km/h 25.9 km/h 71 % 0.0 mm 0.0 W/m2 CLR
05:23 17.3 °C 11.9 °C 1017.2 hPa West 29.6 km/h 29.6 km/h 71 % 0.0 mm 0.0 W/m2 CLR
05:28 17.3 °C 12.0 °C 1016.8 hPa West 25.9 km/h 25.9 km/h 71 % 0.0 mm 0.0 W/m2 CLR
05:33 17.2 °C 11.9 °C 1017.2 hPa WNW 25.7 km/h 25.7 km/h 71 % 0.0 mm 0.0 W/m2 CLR
05:38 17.2 °C 11.9 °C 1017.2 hPa West 25.9 km/h 25.9 km/h 71 % 0.0 mm 0.0 W/m2 CLR
05:43 17.2 °C 11.9 °C 1017.5 hPa West 18.5 km/h 18.5 km/h 71 % 0.0 mm 0.0 W/m2 CLR
05:48 17.1 °C 11.8 °C 1017.2 hPa WNW 13.0 km/h 13.0 km/h 71 % 0.0 mm 0.0 W/m2 CLR
05:58 17.1 °C 11.9 °C 1017.2 hPa West 19.3 km/h 19.3 km/h 72 % 0.0 mm 0.0 W/m2 CLR
06:03 17.1 °C 12.0 °C 1017.2 hPa West 18.5 km/h 18.5 km/h 72 % 0.0 mm 0.0 W/m2 CLR
06:08 17.2 °C 11.9 °C 1017.2 hPa West 25.9 km/h 25.9 km/h 71 % 0.0 mm 0.0 W/m2 CLR
06:13 17.1 °C 11.8 °C 1017.2 hPa West 18.5 km/h 18.5 km/h 71 % 0.0 mm 0.0 W/m2 CLR
06:18 17.1 °C 11.8 °C 1017.2 hPa West 20.4 km/h 20.4 km/h 71 % 0.0 mm 0.0 W/m2 CLR
06:23 17.1 °C 11.9 °C 1017.2 hPa WSW 11.1 km/h 11.1 km/h 72 % 0.0 mm 0.0 W/m2 CLR
06:28 17.0 °C 11.9 °C 1017.2 hPa WSW 18.5 km/h 18.5 km/h 72 % 0.0 mm 0.0 W/m2 CLR
06:33 17.1 °C 11.9 °C 1017.5 hPa West 20.4 km/h 20.4 km/h 72 % 0.0 mm 0.0 W/m2 CLR
06:38 17.1 °C 11.9 °C 1017.5 hPa West 14.8 km/h 14.8 km/h 72 % 0.0 mm 0.0 W/m2 OVC
06:43 17.0 °C 11.9 °C 1017.5 hPa WNW 20.4 km/h 20.4 km/h 72 % 0.0 mm 0.0 W/m2 OVC
06:48 16.9 °C 11.8 °C 1017.5 hPa NW 25.9 km/h 25.9 km/h 72 % 0.0 mm 0.0 W/m2 OVC
06:53 16.9 °C 11.8 °C 1017.2 hPa WNW 30.6 km/h 30.6 km/h 72 % 0.0 mm 7.0 W/m2 OVC
06:58 16.9 °C 11.8 °C 1017.5 hPa NW 31.5 km/h 31.5 km/h 72 % 0.0 mm 9.0 W/m2 BKN
07:03 17.1 °C 11.8 °C 1017.5 hPa West 29.6 km/h 29.6 km/h 71 % 0.0 mm 11.0 W/m2 BKN
07:08 17.1 °C 11.8 °C 1017.5 hPa West 20.4 km/h 20.4 km/h 71 % 0.0 mm 14.0 W/m2 BKN
07:13 17.2 °C 11.7 °C 1017.5 hPa West 8.0 km/h 8.0 km/h 70 % 0.0 mm 19.0 W/m2 BKN
07:18 17.1 °C 11.6 °C 1017.5 hPa WNW 13.0 km/h 13.0 km/h 70 % 0.0 mm 19.0 W/m2 BKN
07:23 17.2 °C 11.7 °C 1017.5 hPa West 18.5 km/h 18.5 km/h 70 % 0.0 mm 23.0 W/m2 BKN
07:28 17.2 °C 11.7 °C 1017.5 hPa West 22.2 km/h 22.2 km/h 70 % 0.0 mm 30.0 W/m2 BKN
07:33 17.3 °C 11.8 °C 1017.5 hPa West 18.5 km/h 18.5 km/h 70 % 0.0 mm 44.0 W/m2 BKN
07:38 17.3 °C 11.8 °C 1017.5 hPa West 31.5 km/h 31.5 km/h 70 % 0.0 mm 58.0 W/m2 SCT
07:43 17.4 °C 11.7 °C 1017.5 hPa West 27.4 km/h 27.4 km/h 69 % 0.0 mm 76.0 W/m2 FEW
07:48 17.4 °C 11.7 °C 1017.5 hPa West 24.1 km/h 24.1 km/h 69 % 0.0 mm 84.0 W/m2 FEW
07:53 17.6 °C 11.8 °C 1017.5 hPa West 24.1 km/h 24.1 km/h 69 % 0.0 mm 100.0 W/m2 FEW
07:58 17.6 °C 11.6 °C 1017.2 hPa West 29.6 km/h 29.6 km/h 68 % 0.0 mm 116.0 W/m2 CLR
08:03 17.6 °C 11.6 °C 1017.2 hPa WNW 25.9 km/h 25.9 km/h 68 % 0.0 mm 134.0 W/m2 CLR
08:09 17.7 °C 11.7 °C 1017.2 hPa WNW 27.8 km/h 27.8 km/h 68 % 0.0 mm 149.0 W/m2 CLR
08:14 17.8 °C 11.8 °C 1017.5 hPa WNW 27.4 km/h 27.4 km/h 68 % 0.0 mm 172.0 W/m2 CLR
08:19 17.9 °C 11.7 °C 1017.5 hPa WNW 29.6 km/h 29.6 km/h 67 % 0.0 mm 188.0 W/m2 CLR
08:24 18.0 °C 11.8 °C 1017.2 hPa NW 29.6 km/h 29.6 km/h 67 % 0.0 mm 207.0 W/m2 CLR
08:29 18.1 °C 11.7 °C 1017.2 hPa WNW 20.4 km/h 20.4 km/h 66 % 0.0 mm 223.0 W/m2 CLR
08:34 18.2 °C 11.8 °C 1017.5 hPa West 22.2 km/h 22.2 km/h 66 % 0.0 mm 244.0 W/m2 CLR
08:39 18.3 °C 11.6 °C 1017.5 hPa WNW 25.9 km/h 25.9 km/h 65 % 0.0 mm 281.0 W/m2 CLR
08:44 18.5 °C 11.6 °C 1017.5 hPa NW 29.6 km/h 29.6 km/h 64 % 0.0 mm 285.0 W/m2 CLR
08:49 18.4 °C 11.5 °C 1017.5 hPa WNW 31.5 km/h 31.5 km/h 64 % 0.0 mm 288.0 W/m2 CLR
08:54 18.6 °C 11.8 °C 1017.5 hPa WNW 29.6 km/h 29.6 km/h 65 % 0.0 mm 306.0 W/m2 CLR
08:59 18.7 °C 11.8 °C 1017.5 hPa West 22.2 km/h 22.2 km/h 64 % 0.0 mm 327.0 W/m2 CLR
09:04 18.8 °C 11.6 °C 1017.5 hPa West 38.9 km/h 38.9 km/h 63 % 0.0 mm 345.0 W/m2 CLR
09:09 18.9 °C 11.9 °C 1017.5 hPa West 29.6 km/h 29.6 km/h 64 % 0.0 mm 367.0 W/m2 CLR
09:14 18.9 °C 11.7 °C 1017.5 hPa WNW 31.5 km/h 31.5 km/h 63 % 0.0 mm 408.0 W/m2 CLR
09:19 18.7 °C 11.8 °C 1017.5 hPa WNW 16.7 km/h 16.7 km/h 64 % 0.0 mm 195.0 W/m2 CLR
09:24 18.9 °C 11.7 °C 1017.5 hPa NNW 27.4 km/h 27.4 km/h 63 % 0.0 mm 144.0 W/m2 CLR
09:29 18.8 °C 11.9 °C 1017.5 hPa WNW 25.9 km/h 25.9 km/h 64 % 0.0 mm 162.0 W/m2 CLR
09:34 18.8 °C 11.6 °C 1017.5 hPa WNW 31.5 km/h 31.5 km/h 63 % 0.0 mm 171.0 W/m2 CLR
09:39 18.9 °C 11.7 °C 1017.5 hPa WNW 27.8 km/h 27.8 km/h 63 % 0.0 mm 552.0 W/m2 CLR
09:44 19.3 °C 11.9 °C 1017.5 hPa WNW 29.6 km/h 29.6 km/h 62 % 0.0 mm 541.0 W/m2 CLR
09:49 19.4 °C 11.7 °C 1017.5 hPa WNW 31.5 km/h 31.5 km/h 61 % 0.0 mm 186.0 W/m2 CLR
09:54 19.4 °C 11.7 °C 1017.5 hPa NW 31.5 km/h 31.5 km/h 61 % 0.0 mm 610.0 W/m2 CLR
09:59 19.6 °C 11.8 °C 1017.5 hPa WNW 25.7 km/h 25.7 km/h 61 % 0.0 mm 294.0 W/m2 CLR
10:04 19.9 °C 11.6 °C 1017.5 hPa WNW 29.6 km/h 29.6 km/h 59 % 0.0 mm 649.0 W/m2 CLR
10:09 19.8 °C 11.8 °C 1017.5 hPa NW 29.6 km/h 29.6 km/h 60 % 0.0 mm 232.0 W/m2 CLR
10:14 20.0 °C 12.0 °C 1017.5 hPa NNW 24.1 km/h 24.1 km/h 60 % 0.0 mm 214.0 W/m2 CLR
10:19 19.9 °C 11.9 °C 1017.5 hPa WNW 24.1 km/h 24.1 km/h 60 % 0.0 mm 200.0 W/m2 CLR
10:24 20.1 °C 12.1 °C 1017.2 hPa WNW 33.3 km/h 33.3 km/h 60 % 0.0 mm 742.0 W/m2 CLR
10:29 19.9 °C 11.9 °C 1017.2 hPa NNW 25.9 km/h 25.9 km/h 60 % 0.0 mm 227.0 W/m2 CLR
10:34 20.1 °C 12.1 °C 1017.2 hPa WNW 33.8 km/h 33.8 km/h 60 % 0.0 mm 336.0 W/m2 CLR
10:39 20.0 °C 11.7 °C 1017.2 hPa NW 24.1 km/h 24.1 km/h 59 % 0.0 mm 193.0 W/m2 CLR
10:44 20.2 °C 12.2 °C 1017.2 hPa WNW 25.9 km/h 25.9 km/h 60 % 0.0 mm 204.0 W/m2 CLR
10:49 20.7 °C 12.4 °C 1017.2 hPa WSW 22.5 km/h 22.5 km/h 59 % 0.0 mm 777.0 W/m2 CLR
10:54 20.8 °C 11.9 °C 1017.2 hPa NW 24.1 km/h 24.1 km/h 57 % 0.0 mm 561.0 W/m2 CLR
10:59 20.7 °C 12.2 °C 1017.2 hPa WNW 25.9 km/h 25.9 km/h 58 % 0.0 mm 744.0 W/m2 CLR
11:02 20.9 °C 12.1 °C 1017.2 hPa WNW 18.5 km/h 18.5 km/h 57 % 0.0 mm 773.0 W/m2 CLR
11:07 21.1 °C 12.2 °C 1017.2 hPa NNW 25.9 km/h 25.9 km/h 57 % 0.0 mm 213.0 W/m2 CLR
11:12 20.9 °C 11.8 °C 1017.2 hPa West 37.0 km/h 37.0 km/h 56 % 0.0 mm 826.0 W/m2 CLR
11:17 21.0 °C 11.9 °C 1016.8 hPa NNW 29.0 km/h 29.0 km/h 56 % 0.0 mm 754.0 W/m2 CLR
11:23 21.4 °C 11.7 °C 1017.2 hPa NW 29.6 km/h 29.6 km/h 54 % 0.0 mm 747.0 W/m2 CLR
11:28 21.7 °C 11.9 °C 1016.8 hPa WNW 31.5 km/h 31.5 km/h 54 % 0.0 mm 744.0 W/m2 CLR
11:33 21.8 °C 12.1 °C 1016.8 hPa WNW 37.0 km/h 37.0 km/h 54 % 0.0 mm 754.0 W/m2 CLR
11:38 21.9 °C 11.9 °C 1016.8 hPa West 25.9 km/h 25.9 km/h 53 % 0.0 mm 763.0 W/m2 CLR
11:43 21.9 °C 11.6 °C 1016.5 hPa WNW 33.3 km/h 33.3 km/h 52 % 0.0 mm 772.0 W/m2 CLR
11:48 21.9 °C 11.6 °C 1016.5 hPa WNW 35.2 km/h 35.2 km/h 52 % 0.0 mm 782.0 W/m2 CLR
11:53 22.3 °C 11.7 °C 1016.5 hPa WNW 33.3 km/h 33.3 km/h 51 % 0.0 mm 791.0 W/m2 CLR
11:58 22.6 °C 11.7 °C 1016.5 hPa West 31.5 km/h 31.5 km/h 50 % 0.0 mm 802.0 W/m2 CLR
12:03 22.6 °C 11.7 °C 1016.5 hPa WNW 35.2 km/h 35.2 km/h 50 % 0.0 mm 809.0 W/m2 CLR
12:08 22.7 °C 11.7 °C 1016.5 hPa WNW 25.9 km/h 25.9 km/h 50 % 0.0 mm 816.0 W/m2 CLR
12:13 22.8 °C 11.9 °C 1016.5 hPa WNW 27.8 km/h 27.8 km/h 50 % 0.0 mm 826.0 W/m2 CLR
12:18 23.1 °C 11.5 °C 1016.5 hPa NW 33.3 km/h 33.3 km/h 48 % 0.0 mm 833.0 W/m2 CLR
12:23 23.0 °C 11.7 °C 1016.5 hPa NNW 20.4 km/h 20.4 km/h 49 % 0.0 mm 842.0 W/m2 CLR
12:28 23.2 °C 11.6 °C 1016.5 hPa West 31.5 km/h 31.5 km/h 48 % 0.0 mm 851.0 W/m2 CLR
12:33 23.4 °C 11.8 °C 1016.1 hPa NW 33.3 km/h 33.3 km/h 48 % 0.0 mm 856.0 W/m2 CLR
12:38 23.4 °C 11.5 °C 1016.5 hPa NW 33.3 km/h 33.3 km/h 47 % 0.0 mm 863.0 W/m2 CLR
12:43 23.6 °C 11.6 °C 1016.1 hPa NW 22.5 km/h 22.5 km/h 47 % 0.0 mm 870.0 W/m2 CLR
12:48 23.7 °C 11.7 °C 1016.1 hPa WNW 31.5 km/h 31.5 km/h 47 % 0.0 mm 879.0 W/m2 CLR
12:53 23.8 °C 11.8 °C 1016.1 hPa NNW 31.5 km/h 31.5 km/h 47 % 0.0 mm 881.0 W/m2 CLR
12:58 23.4 °C 11.5 °C 1016.1 hPa NNW 37.0 km/h 37.0 km/h 47 % 0.0 mm 886.0 W/m2 CLR
13:03 23.5 °C 11.6 °C 1016.1 hPa NW 31.5 km/h 31.5 km/h 47 % 0.0 mm 893.0 W/m2 CLR
13:08 23.4 °C 11.5 °C 1016.1 hPa WNW 37.0 km/h 37.0 km/h 47 % 0.0 mm 896.0 W/m2 CLR
13:13 23.6 °C 11.9 °C 1015.8 hPa WNW 27.8 km/h 27.8 km/h 48 % 0.0 mm 902.0 W/m2 CLR
13:18 24.1 °C 12.1 °C 1015.8 hPa NW 33.3 km/h 33.3 km/h 47 % 0.0 mm 905.0 W/m2 CLR
13:23 24.1 °C 11.8 °C 1016.1 hPa NW 33.3 km/h 33.3 km/h 46 % 0.0 mm 909.0 W/m2 CLR
13:28 24.1 °C 11.7 °C 1016.1 hPa NNW 32.2 km/h 32.2 km/h 46 % 0.0 mm 911.0 W/m2 CLR
13:33 24.2 °C 11.8 °C 1015.8 hPa NNW 33.3 km/h 33.3 km/h 46 % 0.0 mm 914.0 W/m2 CLR
13:38 24.5 °C 11.8 °C 1015.8 hPa WNW 27.8 km/h 27.8 km/h 45 % 0.0 mm 916.0 W/m2 CLR
13:43 24.6 °C 11.8 °C 1015.8 hPa NW 29.6 km/h 29.6 km/h 45 % 0.0 mm 919.0 W/m2 CLR
13:48 24.7 °C 11.7 °C 1015.8 hPa NW 35.2 km/h 35.2 km/h 44 % 0.0 mm 921.0 W/m2 CLR
13:53 24.8 °C 12.1 °C 1015.8 hPa NNW 25.9 km/h 25.9 km/h 45 % 0.0 mm 921.0 W/m2 CLR
13:58 24.9 °C 11.8 °C 1015.5 hPa WNW 31.5 km/h 31.5 km/h 44 % 0.0 mm 923.0 W/m2 CLR
14:03 24.8 °C 11.7 °C 1015.8 hPa NW 31.5 km/h 31.5 km/h 44 % 0.0 mm 926.0 W/m2 CLR
14:08 24.9 °C 11.8 °C 1015.5 hPa NW 29.6 km/h 29.6 km/h 44 % 0.0 mm 925.0 W/m2 CLR
14:13 25.2 °C 12.1 °C 1015.5 hPa NNW 20.4 km/h 20.4 km/h 44 % 0.0 mm 923.0 W/m2 CLR
14:18 25.3 °C 11.5 °C 1015.5 hPa WNW 35.2 km/h 35.2 km/h 42 % 0.0 mm 925.0 W/m2 CLR
14:23 25.3 °C 11.5 °C 1015.5 hPa NNW 22.2 km/h 22.2 km/h 42 % 0.0 mm 923.0 W/m2 CLR
14:28 25.6 °C 12.1 °C 1015.5 hPa West 18.5 km/h 18.5 km/h 43 % 0.0 mm 918.0 W/m2 CLR
14:33 25.6 °C 11.7 °C 1015.1 hPa NW 33.3 km/h 33.3 km/h 42 % 0.0 mm 919.0 W/m2 CLR
14:38 25.6 °C 11.7 °C 1015.1 hPa WNW 29.0 km/h 29.0 km/h 42 % 0.0 mm 918.0 W/m2 CLR
14:43 25.9 °C 12.0 °C 1015.1 hPa NW 22.5 km/h 22.5 km/h 42 % 0.0 mm 916.0 W/m2 CLR
14:45 25.9 °C 12.1 °C 1015.1 hPa NW 31.5 km/h 31.5 km/h 42 % 0.0 mm 916.0 W/m2 CLR
14:50 26.0 °C 12.1 °C 1015.1 hPa NW 25.9 km/h 25.9 km/h 42 % 0.0 mm 912.0 W/m2 CLR
14:55 26.1 °C 11.8 °C 1014.8 hPa NW 29.6 km/h 29.6 km/h 41 % 0.0 mm 905.0 W/m2 CLR
15:00 26.2 °C 11.9 °C 1014.8 hPa WNW 32.2 km/h 32.2 km/h 41 % 0.0 mm 902.0 W/m2 CLR
15:05 26.2 °C 11.9 °C 1014.8 hPa NW 19.3 km/h 19.3 km/h 41 % 0.0 mm 898.0 W/m2 CLR
15:10 26.3 °C 11.7 °C 1014.8 hPa NW 25.9 km/h 25.9 km/h 40 % 0.0 mm 895.0 W/m2 CLR
15:15 26.3 °C 12.0 °C 1014.8 hPa NNW 22.2 km/h 22.2 km/h 41 % 0.0 mm 888.0 W/m2 CLR
15:20 26.6 °C 12.2 °C 1014.4 hPa NW 20.4 km/h 20.4 km/h 41 % 0.0 mm 882.0 W/m2 CLR
15:25 26.6 °C 11.9 °C 1014.4 hPa West 33.3 km/h 33.3 km/h 40 % 0.0 mm 879.0 W/m2 CLR
15:30 26.8 °C 12.8 °C 1014.4 hPa WNW 24.1 km/h 24.1 km/h 42 % 0.0 mm 870.0 W/m2 CLR
15:35 26.8 °C 12.1 °C 1014.4 hPa North 18.5 km/h 18.5 km/h 40 % 0.0 mm 865.0 W/m2 CLR
15:40 26.9 °C 12.2 °C 1014.4 hPa NW 32.2 km/h 32.2 km/h 40 % 0.0 mm 858.0 W/m2 CLR
15:45 27.1 °C 11.9 °C 1014.4 hPa WNW 24.1 km/h 24.1 km/h 39 % 0.0 mm 853.0 W/m2 CLR
15:50 27.2 °C 12.0 °C 1014.4 hPa NNW 25.9 km/h 25.9 km/h 39 % 0.0 mm 844.0 W/m2 CLR
15:55 27.1 °C 11.9 °C 1014.4 hPa NW 25.9 km/h 25.9 km/h 39 % 0.0 mm 837.0 W/m2 CLR
16:00 27.1 °C 11.9 °C 1014.1 hPa NW 24.1 km/h 24.1 km/h 39 % 0.0 mm 828.0 W/m2 CLR
16:05 27.1 °C 11.9 °C 1014.1 hPa NW 31.5 km/h 31.5 km/h 39 % 0.0 mm 819.0 W/m2 CLR
16:11 27.4 °C 12.7 °C 1014.1 hPa WNW 24.1 km/h 24.1 km/h 40 % 0.0 mm 810.0 W/m2 CLR
16:16 27.1 °C 11.9 °C 1014.1 hPa WNW 38.9 km/h 38.9 km/h 39 % 0.0 mm 802.0 W/m2 CLR
16:21 27.0 °C 12.2 °C 1014.1 hPa WNW 42.6 km/h 42.6 km/h 40 % 0.0 mm 793.0 W/m2 CLR
16:26 27.1 °C 11.5 °C 1014.1 hPa WNW 27.4 km/h 27.4 km/h 38 % 0.0 mm 782.0 W/m2 CLR
16:31 26.8 °C 11.7 °C 1014.1 hPa WNW 29.6 km/h 29.6 km/h 39 % 0.0 mm 773.0 W/m2 CLR
16:36 27.1 °C 12.3 °C 1014.1 hPa NW 29.6 km/h 29.6 km/h 40 % 0.0 mm 765.0 W/m2 CLR
16:41 27.0 °C 12.2 °C 1014.1 hPa NW 37.0 km/h 37.0 km/h 40 % 0.0 mm 754.0 W/m2 CLR
16:46 27.1 °C 12.3 °C 1013.8 hPa NW 25.9 km/h 25.9 km/h 40 % 0.0 mm 744.0 W/m2 CLR
16:51 26.9 °C 11.8 °C 1013.8 hPa West 42.6 km/h 42.6 km/h 39 % 0.0 mm 733.0 W/m2 CLR
16:56 27.1 °C 12.3 °C 1014.1 hPa NW 31.5 km/h 31.5 km/h 40 % 0.0 mm 719.0 W/m2 CLR
17:01 27.1 °C 12.3 °C 1013.8 hPa North 24.1 km/h 24.1 km/h 40 % 0.0 mm 703.0 W/m2 CLR
17:06 27.0 °C 12.2 °C 1013.8 hPa WNW 33.3 km/h 33.3 km/h 40 % 0.0 mm 700.0 W/m2 CLR
17:11 26.9 °C 12.5 °C 1013.8 hPa NW 33.3 km/h 33.3 km/h 41 % 0.0 mm 710.0 W/m2 CLR
17:16 26.9 °C 12.5 °C 1013.8 hPa NW 27.8 km/h 27.8 km/h 41 % 0.0 mm 682.0 W/m2 CLR
17:21 26.7 °C 12.0 °C 1013.8 hPa NNW 37.0 km/h 37.0 km/h 40 % 0.0 mm 497.0 W/m2 CLR
17:26 26.7 °C 11.9 °C 1013.8 hPa NW 38.9 km/h 38.9 km/h 40 % 0.0 mm 700.0 W/m2 CLR
17:31 26.6 °C 11.9 °C 1013.8 hPa NNW 40.7 km/h 40.7 km/h 40 % 0.0 mm 670.0 W/m2 CLR
17:36 26.8 °C 12.1 °C 1013.8 hPa WNW 33.3 km/h 33.3 km/h 40 % 0.0 mm 633.0 W/m2 CLR
17:41 26.8 °C 12.1 °C 1013.8 hPa WNW 27.8 km/h 27.8 km/h 40 % 0.0 mm 638.0 W/m2 CLR
17:46 27.0 °C 11.9 °C 1013.8 hPa NNW 25.9 km/h 25.9 km/h 39 % 0.0 mm 622.0 W/m2 CLR
17:51 26.9 °C 11.8 °C 1013.8 hPa NW 33.3 km/h 33.3 km/h 39 % 0.0 mm 617.0 W/m2 CLR
17:56 26.9 °C 11.8 °C 1013.8 hPa NW 25.9 km/h 25.9 km/h 39 % 0.0 mm 615.0 W/m2 CLR
18:01 26.8 °C 10.5 °C 1013.8 hPa West 37.0 km/h 37.0 km/h 36 % 0.0 mm 592.0 W/m2 CLR
18:06 26.6 °C 11.1 °C 1013.4 hPa WNW 33.3 km/h 33.3 km/h 38 % 0.0 mm 547.0 W/m2 CLR
18:11 26.7 °C 11.6 °C 1013.4 hPa WNW 29.0 km/h 29.0 km/h 39 % 0.0 mm 520.0 W/m2 CLR
18:12 26.8 °C 11.3 °C 1013.4 hPa WNW 24.1 km/h 24.5 km/h 38 % 0.0 mm 519.0 W/m2 CLR
18:17 26.7 °C 11.2 °C 1013.8 hPa NW 31.5 km/h 31.5 km/h 38 % 0.0 mm 503.0 W/m2 CLR
18:22 26.6 °C 11.5 °C 1013.4 hPa NNW 22.2 km/h 22.2 km/h 39 % 0.0 mm 487.0 W/m2 CLR
18:27 26.9 °C 11.8 °C 1013.4 hPa NNW 25.9 km/h 25.9 km/h 39 % 0.0 mm 473.0 W/m2 CLR
18:32 27.0 °C 11.4 °C 1013.4 hPa NW 24.1 km/h 24.1 km/h 38 % 0.0 mm 461.0 W/m2 CLR
18:37 26.6 °C 11.1 °C 1013.8 hPa WNW 31.5 km/h 31.5 km/h 38 % 0.0 mm 441.0 W/m2 CLR
18:42 26.5 °C 11.4 °C 1013.8 hPa NW 24.1 km/h 24.1 km/h 39 % 0.0 mm 427.0 W/m2 CLR
18:47 26.3 °C 10.9 °C 1013.4 hPa NNW 33.8 km/h 33.8 km/h 38 % 0.0 mm 417.0 W/m2 CLR
18:52 26.2 °C 11.1 °C 1013.8 hPa NNW 31.5 km/h 31.5 km/h 39 % 0.0 mm 404.0 W/m2 CLR
18:53 26.2 °C 11.2 °C 1013.8 hPa NW 35.2 km/h 35.2 km/h 39 % 0.0 mm 403.0 W/m2 CLR
18:58 26.1 °C 11.4 °C 1013.4 hPa NW 20.9 km/h 20.9 km/h 40 % 0.0 mm 366.0 W/m2 CLR
19:03 26.2 °C 11.5 °C 1013.4 hPa NNW 29.0 km/h 29.0 km/h 40 % 0.0 mm 373.0 W/m2 CLR
19:08 26.0 °C 10.9 °C 1013.4 hPa WNW 33.3 km/h 33.3 km/h 39 % 0.0 mm 213.0 W/m2 CLR
19:13 25.6 °C 11.0 °C 1013.4 hPa WNW 22.2 km/h 22.2 km/h 40 % 0.0 mm 139.0 W/m2 CLR
19:18 25.4 °C 11.2 °C 1013.4 hPa NW 22.2 km/h 22.2 km/h 41 % 0.0 mm 69.0 W/m2 CLR
19:23 25.1 °C 11.2 °C 1013.4 hPa NW 31.5 km/h 31.5 km/h 42 % 0.0 mm 63.0 W/m2 FEW
19:28 24.8 °C 10.6 °C 1013.4 hPa WNW 29.6 km/h 29.6 km/h 41 % 0.0 mm 70.0 W/m2 SCT
19:33 24.7 °C 10.6 °C 1013.4 hPa WNW 22.2 km/h 22.2 km/h 41 % 0.0 mm 95.0 W/m2 FEW
19:38 24.6 °C 10.8 °C 1013.4 hPa WNW 29.6 km/h 29.6 km/h 42 % 0.0 mm 141.0 W/m2 CLR
19:43 24.7 °C 10.9 °C 1013.4 hPa WNW 25.9 km/h 25.9 km/h 42 % 0.0 mm 241.0 W/m2 CLR
19:48 24.9 °C 11.1 °C 1013.4 hPa NW 29.6 km/h 29.6 km/h 42 % 0.0 mm 302.0 W/m2 CLR
19:53 25.0 °C 11.2 °C 1013.4 hPa NW 24.1 km/h 24.1 km/h 42 % 0.0 mm 274.0 W/m2 CLR
19:58 25.2 °C 11.3 °C 1013.8 hPa West 20.9 km/h 20.9 km/h 42 % 0.0 mm 262.0 W/m2 CLR
20:03 25.1 °C 11.3 °C 1013.8 hPa NW 31.5 km/h 31.5 km/h 42 % 0.0 mm 199.0 W/m2 CLR
20:08 24.7 °C 11.3 °C 1013.4 hPa NNW 14.8 km/h 14.8 km/h 43 % 0.0 mm 100.0 W/m2 CLR
20:13 24.6 °C 11.5 °C 1013.4 hPa NNW 17.7 km/h 17.7 km/h 44 % 0.0 mm 79.0 W/m2 CLR
20:18 24.1 °C 11.1 °C 1013.8 hPa NNW 29.6 km/h 29.6 km/h 44 % 0.0 mm 49.0 W/m2 FEW
20:23 23.9 °C 11.2 °C 1013.8 hPa WNW 22.2 km/h 22.2 km/h 45 % 0.0 mm 40.0 W/m2 BKN
20:28 23.6 °C 11.0 °C 1013.8 hPa WNW 20.4 km/h 20.4 km/h 45 % 0.0 mm 39.0 W/m2 BKN
20:33 23.5 °C 11.2 °C 1013.8 hPa NW 18.5 km/h 18.5 km/h 46 % 0.0 mm 49.0 W/m2 SCT
20:38 23.4 °C 11.2 °C 1013.8 hPa West 16.7 km/h 16.7 km/h 46 % 0.0 mm 42.0 W/m2 BKN
20:43 23.2 °C 10.9 °C 1013.8 hPa WNW 25.9 km/h 25.9 km/h 46 % 0.0 mm 33.0 W/m2 BKN
20:48 23.1 °C 11.1 °C 1013.8 hPa WNW 25.7 km/h 25.7 km/h 47 % 0.0 mm 30.0 W/m2 BKN
20:53 22.9 °C 11.3 °C 1014.1 hPa WNW 33.3 km/h 33.3 km/h 48 % 0.0 mm 28.0 W/m2 BKN
20:58 22.7 °C 11.4 °C 1013.8 hPa WNW 20.4 km/h 20.4 km/h 49 % 0.0 mm 25.0 W/m2 BKN
21:04 22.6 °C 11.3 °C 1013.8 hPa WNW 31.5 km/h 31.5 km/h 49 % 0.0 mm 19.0 W/m2 BKN
21:09 22.4 °C 11.4 °C 1013.8 hPa West 31.5 km/h 31.5 km/h 50 % 0.0 mm 14.0 W/m2 BKN
21:14 22.2 °C 11.3 °C 1014.1 hPa NNW 20.4 km/h 20.4 km/h 50 % 0.0 mm 11.0 W/m2 BKN
21:19 22.0 °C 11.4 °C 1014.1 hPa NNW 25.7 km/h 25.7 km/h 51 % 0.0 mm 5.0 W/m2 BKN
21:24 21.8 °C 11.2 °C 1014.1 hPa West 16.7 km/h 16.7 km/h 51 % 0.0 mm 5.0 W/m2 OVC
21:29 21.7 °C 11.1 °C 1014.1 hPa West 18.5 km/h 18.5 km/h 51 % 0.0 mm 5.0 W/m2 OVC
21:34 21.6 °C 11.3 °C 1014.4 hPa NW 17.7 km/h 17.7 km/h 52 % 0.0 mm 0.0 W/m2 CLR
21:39 21.6 °C 11.3 °C 1014.4 hPa Calm     52 % 0.0 mm 0.0 W/m2 CLR
21:44 21.4 °C 11.2 °C 1014.4 hPa SSW 24.1 km/h 24.1 km/h 52 % 0.0 mm 0.0 W/m2 CLR
21:49 21.4 °C 11.1 °C 1014.4 hPa Calm     52 % 0.0 mm 0.0 W/m2 CLR
21:54 21.3 °C 11.3 °C 1014.8 hPa NW 37.0 km/h 37.0 km/h 53 % 0.0 mm 0.0 W/m2 CLR
21:59 21.2 °C 11.3 °C 1014.8 hPa WNW 24.1 km/h 24.1 km/h 53 % 0.0 mm 0.0 W/m2 CLR
22:04 21.1 °C 11.2 °C 1014.8 hPa West 18.5 km/h 18.5 km/h 53 % 0.0 mm 0.0 W/m2 CLR
22:09 21.1 °C 11.1 °C 1015.1 hPa WNW 27.8 km/h 27.8 km/h 53 % 0.0 mm 0.0 W/m2 CLR
22:14 20.9 °C 11.0 °C 1015.1 hPa NW 24.1 km/h 24.1 km/h 53 % 0.0 mm 0.0 W/m2 CLR
22:19 20.9 °C 11.2 °C 1015.1 hPa SW 7.4 km/h 7.4 km/h 54 % 0.0 mm 0.0 W/m2 CLR
22:24 20.8 °C 11.2 °C 1015.1 hPa West 24.1 km/h 24.1 km/h 54 % 0.0 mm 0.0 W/m2 CLR
22:29 20.8 °C 11.1 °C 1015.5 hPa West 20.4 km/h 20.4 km/h 54 % 0.0 mm 0.0 W/m2 CLR
22:34 20.7 °C 11.0 °C 1015.5 hPa WNW 18.5 km/h 18.5 km/h 54 % 0.0 mm 0.0 W/m2 CLR
22:39 20.6 °C 11.0 °C 1015.8 hPa WSW 18.5 km/h 18.5 km/h 54 % 0.0 mm 0.0 W/m2 CLR
22:44 20.6 °C 10.9 °C 1015.8 hPa West 18.5 km/h 18.5 km/h 54 % 0.0 mm 0.0 W/m2 CLR
22:49 20.6 °C 10.9 °C 1015.8 hPa SW 18.5 km/h 18.5 km/h 54 % 0.0 mm 0.0 W/m2 CLR
22:54 20.5 °C 10.9 °C 1015.8 hPa WNW 22.2 km/h 22.2 km/h 54 % 0.0 mm 0.0 W/m2 CLR
22:59 20.5 °C 10.9 °C 1015.8 hPa WNW 14.8 km/h 14.8 km/h 54 % 0.0 mm 0.0 W/m2 CLR
23:04 20.4 °C 10.8 °C 1015.8 hPa West 22.2 km/h 22.2 km/h 54 % 0.0 mm 0.0 W/m2 CLR
23:09 20.4 °C 11.1 °C 1015.8 hPa SW 14.8 km/h 14.8 km/h 55 % 0.0 mm 0.0 W/m2 CLR
23:14 20.4 °C 11.1 °C 1016.1 hPa West 5.6 km/h 5.6 km/h 55 % 0.0 mm 0.0 W/m2 CLR
23:15 20.4 °C 11.1 °C 1015.8 hPa WSW 5.6 km/h 5.6 km/h 55 % 0.0 mm 0.0 W/m2 CLR
23:20 20.3 °C 11.0 °C 1015.8 hPa WSW 7.4 km/h 7.4 km/h 55 % 0.0 mm 0.0 W/m2 CLR
23:25 20.3 °C 10.9 °C 1016.1 hPa SW 6.4 km/h 6.4 km/h 55 % 0.0 mm 0.0 W/m2 CLR
23:30 20.2 °C 10.9 °C 1016.1 hPa WSW 1.9 km/h   55 % 0.0 mm 0.0 W/m2 CLR
23:35 20.1 °C 10.8 °C 1016.1 hPa WNW 16.1 km/h 16.1 km/h 55 % 0.0 mm 0.0 W/m2 CLR
23:40 20.1 °C 10.7 °C 1016.1 hPa West 31.5 km/h 31.5 km/h 55 % 0.0 mm 0.0 W/m2 CLR
23:45 20.0 °C 10.7 °C 1016.1 hPa WSW 20.4 km/h 20.4 km/h 55 % 0.0 mm 0.0 W/m2 CLR
23:50 19.9 °C 10.6 °C 1015.8 hPa West 31.5 km/h 31.5 km/h 55 % 0.0 mm 0.0 W/m2 CLR
23:55 19.8 °C 10.5 °C 1015.8 hPa West 18.5 km/h 18.5 km/h 55 % 0.0 mm 0.0 W/m2 CLR
Lo Temps de Massalio
Compliments of Weather Underground - 1.25 mb